sensor_id;sensor_type;location;lat;lon;timestamp;temperature;humidity
15596;DHT22;7898;48.658;9.068;2024-03-29T00:00:36;3.90;99.90
15596;DHT22;7898;48.658;9.068;2024-03-29T00:03:02;3.90;99.90
15596;DHT22;7898;48.658;9.068;2024-03-29T00:05:28;4.00;99.90
15596;DHT22;7898;48.658;9.068;2024-03-29T00:07:54;4.00;99.90
15596;DHT22;7898;48.658;9.068;2024-03-29T00:10:20;4.10;99.90
15596;DHT22;7898;48.658;9.068;2024-03-29T00:12:46;4.20;99.90
15596;DHT22;7898;48.658;9.068;2024-03-29T00:15:12;4.10;99.90
15596;DHT22;7898;48.658;9.068;2024-03-29T00:17:39;4.10;99.90
15596;DHT22;7898;48.658;9.068;2024-03-29T00:20:06;4.10;99.90
15596;DHT22;7898;48.658;9.068;2024-03-29T00:22:32;4.10;99.90
15596;DHT22;7898;48.658;9.068;2024-03-29T00:24:58;4.00;99.90
15596;DHT22;7898;48.658;9.068;2024-03-29T00:27:24;4.00;99.90
15596;DHT22;7898;48.658;9.068;2024-03-29T00:29:50;4.00;99.90
15596;DHT22;7898;48.658;9.068;2024-03-29T00:32:16;3.90;99.90
15596;DHT22;7898;48.658;9.068;2024-03-29T00:34:43;3.90;99.90
15596;DHT22;7898;48.658;9.068;2024-03-29T00:37:09;3.90;99.90
15596;DHT22;7898;48.658;9.068;2024-03-29T00:39:35;4.00;99.90
15596;DHT22;7898;48.658;9.068;2024-03-29T00:42:01;4.00;99.90
15596;DHT22;7898;48.658;9.068;2024-03-29T00:44:27;4.00;99.90
15596;DHT22;7898;48.658;9.068;2024-03-29T00:46:53;4.00;99.90
15596;DHT22;7898;48.658;9.068;2024-03-29T00:49:19;4.30;99.90
15596;DHT22;7898;48.658;9.068;2024-03-29T00:51:46;4.00;99.90
15596;DHT22;7898;48.658;9.068;2024-03-29T00:54:12;4.00;99.90
15596;DHT22;7898;48.658;9.068;2024-03-29T00:56:38;4.00;99.90
15596;DHT22;7898;48.658;9.068;2024-03-29T00:59:04;4.00;99.90
15596;DHT22;7898;48.658;9.068;2024-03-29T01:01:30;4.00;99.90
15596;DHT22;7898;48.658;9.068;2024-03-29T01:03:56;4.10;99.90
15596;DHT22;7898;48.658;9.068;2024-03-29T01:06:22;4.10;99.90
15596;DHT22;7898;48.658;9.068;2024-03-29T01:08:49;4.10;99.90
15596;DHT22;7898;48.658;9.068;2024-03-29T01:11:15;4.10;99.90
15596;DHT22;7898;48.658;9.068;2024-03-29T01:13:41;4.00;99.90
15596;DHT22;7898;48.658;9.068;2024-03-29T01:16:07;4.20;99.90
15596;DHT22;7898;48.658;9.068;2024-03-29T01:18:33;4.10;99.90
15596;DHT22;7898;48.658;9.068;2024-03-29T01:20:59;4.00;99.90
15596;DHT22;7898;48.658;9.068;2024-03-29T01:23:25;4.00;99.90
15596;DHT22;7898;48.658;9.068;2024-03-29T01:25:52;3.90;99.90
15596;DHT22;7898;48.658;9.068;2024-03-29T01:28:18;3.90;99.90
15596;DHT22;7898;48.658;9.068;2024-03-29T01:30:51;3.90;99.90
15596;DHT22;7898;48.658;9.068;2024-03-29T01:33:17;3.70;99.90
15596;DHT22;7898;48.658;9.068;2024-03-29T01:35:43;3.80;99.90
15596;DHT22;7898;48.658;9.068;2024-03-29T01:38:09;3.80;99.90
15596;DHT22;7898;48.658;9.068;2024-03-29T01:40:35;3.80;99.90
15596;DHT22;7898;48.658;9.068;2024-03-29T01:43:03;3.70;99.90
15596;DHT22;7898;48.658;9.068;2024-03-29T01:45:29;3.70;99.90
15596;DHT22;7898;48.658;9.068;2024-03-29T01:47:57;3.60;99.90
15596;DHT22;7898;48.658;9.068;2024-03-29T01:50:24;3.60;99.90
15596;DHT22;7898;48.658;9.068;2024-03-29T01:52:51;3.60;99.90
15596;DHT22;7898;48.658;9.068;2024-03-29T01:55:18;3.60;99.90
15596;DHT22;7898;48.658;9.068;2024-03-29T01:57:45;3.60;99.90
15596;DHT22;7898;48.658;9.068;2024-03-29T02:00:14;3.60;99.90
15596;DHT22;7898;48.658;9.068;2024-03-29T02:02:41;3.70;99.90
15596;DHT22;7898;48.658;9.068;2024-03-29T02:05:08;3.70;99.90
15596;DHT22;7898;48.658;9.068;2024-03-29T02:07:35;3.70;99.90
15596;DHT22;7898;48.658;9.068;2024-03-29T02:10:03;3.80;99.90
15596;DHT22;7898;48.658;9.068;2024-03-29T02:12:32;3.70;99.90
15596;DHT22;7898;48.658;9.068;2024-03-29T02:14:59;3.60;99.90
15596;DHT22;7898;48.658;9.068;2024-03-29T02:17:29;3.70;99.90
15596;DHT22;7898;48.658;9.068;2024-03-29T02:19:55;3.70;99.90
15596;DHT22;7898;48.658;9.068;2024-03-29T02:22:24;3.70;99.90
15596;DHT22;7898;48.658;9.068;2024-03-29T02:24:53;4.50;99.90
15596;DHT22;7898;48.658;9.068;2024-03-29T02:27:21;3.80;99.90
15596;DHT22;7898;48.658;9.068;2024-03-29T02:29:48;3.90;99.90
15596;DHT22;7898;48.658;9.068;2024-03-29T02:32:16;4.00;99.90
15596;DHT22;7898;48.658;9.068;2024-03-29T02:34:43;4.00;99.90
15596;DHT22;7898;48.658;9.068;2024-03-29T02:37:10;4.10;99.90
15596;DHT22;7898;48.658;9.068;2024-03-29T02:39:37;4.10;99.90
15596;DHT22;7898;48.658;9.068;2024-03-29T02:42:06;4.10;99.90
15596;DHT22;7898;48.658;9.068;2024-03-29T02:44:33;4.10;99.90
15596;DHT22;7898;48.658;9.068;2024-03-29T02:46:59;4.20;99.90
15596;DHT22;7898;48.658;9.068;2024-03-29T02:49:25;4.10;99.90
15596;DHT22;7898;48.658;9.068;2024-03-29T02:51:52;4.00;99.90
15596;DHT22;7898;48.658;9.068;2024-03-29T02:54:19;4.00;99.90
15596;DHT22;7898;48.658;9.068;2024-03-29T02:56:45;3.90;99.90
15596;DHT22;7898;48.658;9.068;2024-03-29T02:59:13;3.90;99.90
15596;DHT22;7898;48.658;9.068;2024-03-29T03:01:40;3.90;99.90
15596;DHT22;7898;48.658;9.068;2024-03-29T03:04:06;4.00;99.90
15596;DHT22;7898;48.658;9.068;2024-03-29T03:06:32;4.10;99.90
15596;DHT22;7898;48.658;9.068;2024-03-29T03:08:58;4.20;99.90
15596;DHT22;7898;48.658;9.068;2024-03-29T03:11:57;4.30;99.90
15596;DHT22;7898;48.658;9.068;2024-03-29T03:14:26;4.40;99.90
15596;DHT22;7898;48.658;9.068;2024-03-29T03:16:53;4.40;99.90
15596;DHT22;7898;48.658;9.068;2024-03-29T03:19:19;4.40;99.90
15596;DHT22;7898;48.658;9.068;2024-03-29T03:21:45;4.40;99.90
15596;DHT22;7898;48.658;9.068;2024-03-29T03:24:13;4.60;99.90
15596;DHT22;7898;48.658;9.068;2024-03-29T03:26:39;4.60;99.90
15596;DHT22;7898;48.658;9.068;2024-03-29T03:29:05;4.70;99.90
15596;DHT22;7898;48.658;9.068;2024-03-29T03:31:34;4.60;99.90
15596;DHT22;7898;48.658;9.068;2024-03-29T03:34:01;4.50;99.90
15596;DHT22;7898;48.658;9.068;2024-03-29T03:36:27;4.60;99.90
15596;DHT22;7898;48.658;9.068;2024-03-29T03:38:54;4.50;99.90
15596;DHT22;7898;48.658;9.068;2024-03-29T03:41:20;4.60;99.90
15596;DHT22;7898;48.658;9.068;2024-03-29T03:43:46;4.60;99.90
15596;DHT22;7898;48.658;9.068;2024-03-29T03:46:12;4.80;99.90
15596;DHT22;7898;48.658;9.068;2024-03-29T03:48:41;4.90;99.90
15596;DHT22;7898;48.658;9.068;2024-03-29T03:51:06;4.90;99.90
15596;DHT22;7898;48.658;9.068;2024-03-29T03:53:33;4.90;99.90
15596;DHT22;7898;48.658;9.068;2024-03-29T03:55:59;5.10;99.90
15596;DHT22;7898;48.658;9.068;2024-03-29T03:58:26;5.20;99.90
15596;DHT22;7898;48.658;9.068;2024-03-29T04:00:52;5.20;99.90
15596;DHT22;7898;48.658;9.068;2024-03-29T04:03:18;5.10;99.90
15596;DHT22;7898;48.658;9.068;2024-03-29T04:05:46;5.10;99.90
15596;DHT22;7898;48.658;9.068;2024-03-29T04:08:12;5.10;99.90
15596;DHT22;7898;48.658;9.068;2024-03-29T04:10:40;4.90;99.90
15596;DHT22;7898;48.658;9.068;2024-03-29T04:13:07;4.80;99.90
15596;DHT22;7898;48.658;9.068;2024-03-29T04:15:34;4.80;99.90
15596;DHT22;7898;48.658;9.068;2024-03-29T04:18:01;4.80;99.90
15596;DHT22;7898;48.658;9.068;2024-03-29T04:20:27;4.80;99.90
15596;DHT22;7898;48.658;9.068;2024-03-29T04:22:55;4.80;99.90
15596;DHT22;7898;48.658;9.068;2024-03-29T04:25:21;4.80;99.90
15596;DHT22;7898;48.658;9.068;2024-03-29T04:27:47;4.90;99.90
15596;DHT22;7898;48.658;9.068;2024-03-29T04:30:14;4.90;99.90
15596;DHT22;7898;48.658;9.068;2024-03-29T04:32:40;5.00;99.90
15596;DHT22;7898;48.658;9.068;2024-03-29T04:35:07;5.00;99.90
15596;DHT22;7898;48.658;9.068;2024-03-29T04:37:34;5.10;99.90
15596;DHT22;7898;48.658;9.068;2024-03-29T04:40:03;5.10;99.90
15596;DHT22;7898;48.658;9.068;2024-03-29T04:42:30;5.10;99.90
15596;DHT22;7898;48.658;9.068;2024-03-29T04:44:56;5.10;99.90
15596;DHT22;7898;48.658;9.068;2024-03-29T04:47:23;5.10;99.90
15596;DHT22;7898;48.658;9.068;2024-03-29T04:49:50;5.20;99.90
15596;DHT22;7898;48.658;9.068;2024-03-29T04:52:17;5.10;99.90
15596;DHT22;7898;48.658;9.068;2024-03-29T04:54:44;5.20;99.90
15596;DHT22;7898;48.658;9.068;2024-03-29T04:57:12;5.20;99.90
15596;DHT22;7898;48.658;9.068;2024-03-29T04:59:39;5.20;99.90
15596;DHT22;7898;48.658;9.068;2024-03-29T05:02:06;5.10;99.90
15596;DHT22;7898;48.658;9.068;2024-03-29T05:04:33;5.10;99.90
15596;DHT22;7898;48.658;9.068;2024-03-29T05:07:00;5.10;99.90
15596;DHT22;7898;48.658;9.068;2024-03-29T05:09:27;5.20;99.90
15596;DHT22;7898;48.658;9.068;2024-03-29T05:11:54;5.30;99.90
15596;DHT22;7898;48.658;9.068;2024-03-29T05:14:22;5.30;99.90
15596;DHT22;7898;48.658;9.068;2024-03-29T05:16:49;5.40;99.90
15596;DHT22;7898;48.658;9.068;2024-03-29T05:19:16;5.30;99.90
15596;DHT22;7898;48.658;9.068;2024-03-29T05:21:43;5.30;99.90
15596;DHT22;7898;48.658;9.068;2024-03-29T05:24:10;5.30;99.90
15596;DHT22;7898;48.658;9.068;2024-03-29T05:26:37;5.20;99.90
15596;DHT22;7898;48.658;9.068;2024-03-29T05:29:04;5.20;99.90
15596;DHT22;7898;48.658;9.068;2024-03-29T05:31:34;5.20;99.90
15596;DHT22;7898;48.658;9.068;2024-03-29T05:34:01;5.30;99.90
15596;DHT22;7898;48.658;9.068;2024-03-29T05:36:27;5.30;99.90
15596;DHT22;7898;48.658;9.068;2024-03-29T05:38:54;5.30;99.90
15596;DHT22;7898;48.658;9.068;2024-03-29T05:41:21;5.40;99.90
15596;DHT22;7898;48.658;9.068;2024-03-29T05:43:48;5.40;99.90
15596;DHT22;7898;48.658;9.068;2024-03-29T05:46:16;5.50;99.90
15596;DHT22;7898;48.658;9.068;2024-03-29T05:48:45;5.50;99.90
15596;DHT22;7898;48.658;9.068;2024-03-29T05:51:12;5.60;99.90
15596;DHT22;7898;48.658;9.068;2024-03-29T05:53:39;5.70;99.90
15596;DHT22;7898;48.658;9.068;2024-03-29T05:56:06;5.70;99.90
15596;DHT22;7898;48.658;9.068;2024-03-29T05:58:33;5.70;99.90
15596;DHT22;7898;48.658;9.068;2024-03-29T06:01:00;5.80;99.90
15596;DHT22;7898;48.658;9.068;2024-03-29T06:03:27;5.80;99.90
15596;DHT22;7898;48.658;9.068;2024-03-29T06:05:56;5.90;99.90
15596;DHT22;7898;48.658;9.068;2024-03-29T06:08:23;6.00;99.90
15596;DHT22;7898;48.658;9.068;2024-03-29T06:10:52;6.10;99.90
15596;DHT22;7898;48.658;9.068;2024-03-29T06:13:19;6.20;99.90
15596;DHT22;7898;48.658;9.068;2024-03-29T06:16:14;6.50;99.90
15596;DHT22;7898;48.658;9.068;2024-03-29T06:18:59;6.60;99.90
15596;DHT22;7898;48.658;9.068;2024-03-29T06:21:27;6.70;99.90
15596;DHT22;7898;48.658;9.068;2024-03-29T06:23:54;6.80;99.90
15596;DHT22;7898;48.658;9.068;2024-03-29T06:26:21;6.80;99.90
15596;DHT22;7898;48.658;9.068;2024-03-29T06:28:47;6.80;99.90
15596;DHT22;7898;48.658;9.068;2024-03-29T06:31:14;6.80;99.90
15596;DHT22;7898;48.658;9.068;2024-03-29T06:33:41;6.80;99.90
15596;DHT22;7898;48.658;9.068;2024-03-29T06:36:08;6.90;99.90
15596;DHT22;7898;48.658;9.068;2024-03-29T06:38:36;7.00;99.90
15596;DHT22;7898;48.658;9.068;2024-03-29T06:41:03;7.10;99.90
15596;DHT22;7898;48.658;9.068;2024-03-29T06:43:30;7.20;99.90
15596;DHT22;7898;48.658;9.068;2024-03-29T06:45:57;7.40;99.90
15596;DHT22;7898;48.658;9.068;2024-03-29T06:48:25;7.40;99.90
15596;DHT22;7898;48.658;9.068;2024-03-29T06:50:51;7.50;99.90
15596;DHT22;7898;48.658;9.068;2024-03-29T06:53:18;7.60;99.90
15596;DHT22;7898;48.658;9.068;2024-03-29T06:55:47;7.60;99.90
15596;DHT22;7898;48.658;9.068;2024-03-29T06:58:15;7.50;99.90
15596;DHT22;7898;48.658;9.068;2024-03-29T07:00:43;7.50;99.90
15596;DHT22;7898;48.658;9.068;2024-03-29T07:03:10;7.60;99.90
15596;DHT22;7898;48.658;9.068;2024-03-29T07:05:36;7.60;99.90
15596;DHT22;7898;48.658;9.068;2024-03-29T07:08:04;7.70;99.90
15596;DHT22;7898;48.658;9.068;2024-03-29T07:10:31;7.60;99.90
15596;DHT22;7898;48.658;9.068;2024-03-29T07:12:59;7.60;99.90
15596;DHT22;7898;48.658;9.068;2024-03-29T07:15:26;7.60;99.90
15596;DHT22;7898;48.658;9.068;2024-03-29T07:17:53;7.80;99.90
15596;DHT22;7898;48.658;9.068;2024-03-29T07:20:19;7.80;99.90
15596;DHT22;7898;48.658;9.068;2024-03-29T07:22:46;7.80;99.90
15596;DHT22;7898;48.658;9.068;2024-03-29T07:25:13;7.80;99.90
15596;DHT22;7898;48.658;9.068;2024-03-29T07:27:40;7.70;99.90
15596;DHT22;7898;48.658;9.068;2024-03-29T07:30:09;7.80;99.90
15596;DHT22;7898;48.658;9.068;2024-03-29T07:32:36;7.70;99.90
15596;DHT22;7898;48.658;9.068;2024-03-29T07:35:04;8.00;99.90
15596;DHT22;7898;48.658;9.068;2024-03-29T07:37:31;7.60;99.90
15596;DHT22;7898;48.658;9.068;2024-03-29T07:39:58;7.60;99.90
15596;DHT22;7898;48.658;9.068;2024-03-29T07:42:25;7.60;99.90
15596;DHT22;7898;48.658;9.068;2024-03-29T07:44:51;7.60;99.90
15596;DHT22;7898;48.658;9.068;2024-03-29T07:47:20;7.70;99.90
15596;DHT22;7898;48.658;9.068;2024-03-29T07:49:50;7.60;99.90
15596;DHT22;7898;48.658;9.068;2024-03-29T07:52:17;7.50;99.90
15596;DHT22;7898;48.658;9.068;2024-03-29T07:54:45;7.50;99.90
15596;DHT22;7898;48.658;9.068;2024-03-29T07:57:11;7.40;99.90
15596;DHT22;7898;48.658;9.068;2024-03-29T07:59:40;7.40;99.90
15596;DHT22;7898;48.658;9.068;2024-03-29T08:02:07;7.30;99.90
15596;DHT22;7898;48.658;9.068;2024-03-29T08:04:36;7.30;99.90
15596;DHT22;7898;48.658;9.068;2024-03-29T08:07:04;7.30;99.90
15596;DHT22;7898;48.658;9.068;2024-03-29T08:09:31;7.40;99.90
15596;DHT22;7898;48.658;9.068;2024-03-29T08:11:58;7.30;99.90
15596;DHT22;7898;48.658;9.068;2024-03-29T08:14:25;7.40;99.90
15596;DHT22;7898;48.658;9.068;2024-03-29T08:16:53;7.40;99.90
15596;DHT22;7898;48.658;9.068;2024-03-29T08:19:21;7.40;99.90
15596;DHT22;7898;48.658;9.068;2024-03-29T08:21:49;7.50;99.90
15596;DHT22;7898;48.658;9.068;2024-03-29T08:24:16;7.50;99.90
15596;DHT22;7898;48.658;9.068;2024-03-29T08:26:43;7.60;99.90
15596;DHT22;7898;48.658;9.068;2024-03-29T08:29:09;7.50;99.90
15596;DHT22;7898;48.658;9.068;2024-03-29T08:31:36;7.60;99.90
15596;DHT22;7898;48.658;9.068;2024-03-29T08:34:03;7.70;99.90
15596;DHT22;7898;48.658;9.068;2024-03-29T08:36:32;7.70;99.90
15596;DHT22;7898;48.658;9.068;2024-03-29T08:39:00;7.80;99.90
15596;DHT22;7898;48.658;9.068;2024-03-29T08:41:28;7.80;99.90
15596;DHT22;7898;48.658;9.068;2024-03-29T08:43:55;7.90;99.90
15596;DHT22;7898;48.658;9.068;2024-03-29T08:46:21;8.00;99.90
15596;DHT22;7898;48.658;9.068;2024-03-29T08:48:49;8.10;99.90
15596;DHT22;7898;48.658;9.068;2024-03-29T08:51:16;8.20;99.90
15596;DHT22;7898;48.658;9.068;2024-03-29T08:53:43;8.30;99.90
15596;DHT22;7898;48.658;9.068;2024-03-29T08:56:11;8.40;99.90
15596;DHT22;7898;48.658;9.068;2024-03-29T08:58:38;8.40;99.90
15596;DHT22;7898;48.658;9.068;2024-03-29T09:01:05;8.50;99.90
15596;DHT22;7898;48.658;9.068;2024-03-29T09:03:32;8.60;99.90
15596;DHT22;7898;48.658;9.068;2024-03-29T09:05:59;8.70;99.90
15596;DHT22;7898;48.658;9.068;2024-03-29T09:08:26;8.80;99.90
15596;DHT22;7898;48.658;9.068;2024-03-29T09:10:52;8.90;99.90
15596;DHT22;7898;48.658;9.068;2024-03-29T09:13:21;9.00;99.90
15596;DHT22;7898;48.658;9.068;2024-03-29T09:15:47;9.10;99.90
15596;DHT22;7898;48.658;9.068;2024-03-29T09:18:14;9.10;99.90
15596;DHT22;7898;48.658;9.068;2024-03-29T09:20:45;9.10;99.90
15596;DHT22;7898;48.658;9.068;2024-03-29T09:23:11;9.10;99.90
15596;DHT22;7898;48.658;9.068;2024-03-29T09:25:42;9.10;99.90
15596;DHT22;7898;48.658;9.068;2024-03-29T09:28:09;9.10;99.90
15596;DHT22;7898;48.658;9.068;2024-03-29T09:30:37;9.20;99.90
15596;DHT22;7898;48.658;9.068;2024-03-29T09:33:04;9.20;99.90
15596;DHT22;7898;48.658;9.068;2024-03-29T09:35:34;9.20;99.90
15596;DHT22;7898;48.658;9.068;2024-03-29T09:38:01;9.20;99.90
15596;DHT22;7898;48.658;9.068;2024-03-29T09:40:29;9.30;99.90
15596;DHT22;7898;48.658;9.068;2024-03-29T09:42:59;9.40;99.90
15596;DHT22;7898;48.658;9.068;2024-03-29T09:45:29;9.60;99.90
15596;DHT22;7898;48.658;9.068;2024-03-29T09:48:00;9.80;99.90
15596;DHT22;7898;48.658;9.068;2024-03-29T09:50:28;10.20;99.90
15596;DHT22;7898;48.658;9.068;2024-03-29T09:52:56;10.30;99.90
15596;DHT22;7898;48.658;9.068;2024-03-29T09:55:25;10.50;99.90
15596;DHT22;7898;48.658;9.068;2024-03-29T09:57:52;10.50;99.90
15596;DHT22;7898;48.658;9.068;2024-03-29T10:00:19;10.70;99.90
15596;DHT22;7898;48.658;9.068;2024-03-29T10:02:48;10.70;99.90
15596;DHT22;7898;48.658;9.068;2024-03-29T10:05:17;10.60;99.90
15596;DHT22;7898;48.658;9.068;2024-03-29T10:07:45;10.50;99.90
15596;DHT22;7898;48.658;9.068;2024-03-29T10:10:13;10.60;99.90
15596;DHT22;7898;48.658;9.068;2024-03-29T10:12:40;10.80;99.90
15596;DHT22;7898;48.658;9.068;2024-03-29T10:15:07;11.10;99.90
15596;DHT22;7898;48.658;9.068;2024-03-29T10:17:40;11.30;99.90
15596;DHT22;7898;48.658;9.068;2024-03-29T10:20:11;11.70;99.90
15596;DHT22;7898;48.658;9.068;2024-03-29T10:22:42;12.30;99.90
15596;DHT22;7898;48.658;9.068;2024-03-29T10:25:10;12.80;99.90
15596;DHT22;7898;48.658;9.068;2024-03-29T10:27:37;13.20;99.90
15596;DHT22;7898;48.658;9.068;2024-03-29T10:30:06;13.40;99.90
15596;DHT22;7898;48.658;9.068;2024-03-29T10:32:34;13.30;99.90
15596;DHT22;7898;48.658;9.068;2024-03-29T10:35:01;13.30;99.90
15596;DHT22;7898;48.658;9.068;2024-03-29T10:37:29;13.30;99.90
15596;DHT22;7898;48.658;9.068;2024-03-29T10:40:00;13.30;99.90
15596;DHT22;7898;48.658;9.068;2024-03-29T10:42:29;13.40;99.90
15596;DHT22;7898;48.658;9.068;2024-03-29T10:44:59;13.50;99.90
15596;DHT22;7898;48.658;9.068;2024-03-29T10:47:28;13.40;99.90
15596;DHT22;7898;48.658;9.068;2024-03-29T10:49:56;13.20;99.90
15596;DHT22;7898;48.658;9.068;2024-03-29T10:52:25;13.10;99.90
15596;DHT22;7898;48.658;9.068;2024-03-29T10:54:52;13.10;99.90
15596;DHT22;7898;48.658;9.068;2024-03-29T10:57:23;13.20;99.90
15596;DHT22;7898;48.658;9.068;2024-03-29T10:59:59;13.40;99.90
15596;DHT22;7898;48.658;9.068;2024-03-29T11:02:33;13.70;99.90
15596;DHT22;7898;48.658;9.068;2024-03-29T11:05:06;14.00;99.90
15596;DHT22;7898;48.658;9.068;2024-03-29T11:07:40;14.10;99.90
15596;DHT22;7898;48.658;9.068;2024-03-29T11:10:13;14.30;99.90
15596;DHT22;7898;48.658;9.068;2024-03-29T11:12:50;14.30;99.90
15596;DHT22;7898;48.658;9.068;2024-03-29T11:15:26;14.50;99.90
15596;DHT22;7898;48.658;9.068;2024-03-29T11:17:55;14.60;99.90
15596;DHT22;7898;48.658;9.068;2024-03-29T11:20:24;14.80;99.90
15596;DHT22;7898;48.658;9.068;2024-03-29T11:23:01;14.90;99.90
15596;DHT22;7898;48.658;9.068;2024-03-29T11:25:41;15.10;99.90
15596;DHT22;7898;48.658;9.068;2024-03-29T11:28:11;15.20;99.90
15596;DHT22;7898;48.658;9.068;2024-03-29T11:30:42;15.30;99.90
15596;DHT22;7898;48.658;9.068;2024-03-29T11:33:29;15.30;99.90
15596;DHT22;7898;48.658;9.068;2024-03-29T11:35:57;15.30;99.90
15596;DHT22;7898;48.658;9.068;2024-03-29T11:38:34;15.10;99.90
15596;DHT22;7898;48.658;9.068;2024-03-29T11:41:02;15.10;99.90
15596;DHT22;7898;48.658;9.068;2024-03-29T11:43:31;15.00;99.90
15596;DHT22;7898;48.658;9.068;2024-03-29T11:45:59;14.90;99.90
15596;DHT22;7898;48.658;9.068;2024-03-29T11:48:27;14.80;99.90
15596;DHT22;7898;48.658;9.068;2024-03-29T11:50:54;14.80;99.90
15596;DHT22;7898;48.658;9.068;2024-03-29T11:53:21;14.70;99.90
15596;DHT22;7898;48.658;9.068;2024-03-29T11:55:48;14.80;99.90
15596;DHT22;7898;48.658;9.068;2024-03-29T11:58:19;14.90;99.90
15596;DHT22;7898;48.658;9.068;2024-03-29T12:00:48;15.00;99.90
15596;DHT22;7898;48.658;9.068;2024-03-29T12:03:16;15.30;99.90
15596;DHT22;7898;48.658;9.068;2024-03-29T12:05:43;15.40;99.90
15596;DHT22;7898;48.658;9.068;2024-03-29T12:08:10;15.50;99.90
15596;DHT22;7898;48.658;9.068;2024-03-29T12:10:37;15.60;99.90
15596;DHT22;7898;48.658;9.068;2024-03-29T12:13:05;15.60;99.90
15596;DHT22;7898;48.658;9.068;2024-03-29T12:15:32;15.80;99.90
15596;DHT22;7898;48.658;9.068;2024-03-29T12:18:02;15.80;99.90
15596;DHT22;7898;48.658;9.068;2024-03-29T12:20:31;15.90;99.90
15596;DHT22;7898;48.658;9.068;2024-03-29T12:22:59;16.00;99.90
15596;DHT22;7898;48.658;9.068;2024-03-29T12:25:27;16.10;99.90
15596;DHT22;7898;48.658;9.068;2024-03-29T12:27:54;16.20;99.90
15596;DHT22;7898;48.658;9.068;2024-03-29T12:30:21;16.20;99.90
15596;DHT22;7898;48.658;9.068;2024-03-29T12:32:48;16.40;99.90
15596;DHT22;7898;48.658;9.068;2024-03-29T12:35:16;16.40;99.90
15596;DHT22;7898;48.658;9.068;2024-03-29T12:37:50;16.50;99.90
15596;DHT22;7898;48.658;9.068;2024-03-29T12:40:17;16.80;99.90
15596;DHT22;7898;48.658;9.068;2024-03-29T12:42:48;17.30;99.90
15596;DHT22;7898;48.658;9.068;2024-03-29T12:45:15;17.50;99.90
15596;DHT22;7898;48.658;9.068;2024-03-29T12:47:43;17.70;99.90
15596;DHT22;7898;48.658;9.068;2024-03-29T12:50:13;17.70;99.90
15596;DHT22;7898;48.658;9.068;2024-03-29T12:52:42;17.60;99.90
15596;DHT22;7898;48.658;9.068;2024-03-29T12:55:09;17.20;99.90
15596;DHT22;7898;48.658;9.068;2024-03-29T12:57:37;17.10;99.90
15596;DHT22;7898;48.658;9.068;2024-03-29T13:00:07;16.90;99.90
15596;DHT22;7898;48.658;9.068;2024-03-29T13:02:35;16.90;99.90
15596;DHT22;7898;48.658;9.068;2024-03-29T13:05:03;17.30;99.90
15596;DHT22;7898;48.658;9.068;2024-03-29T13:07:31;17.80;99.90
15596;DHT22;7898;48.658;9.068;2024-03-29T13:09:59;18.00;99.90
15596;DHT22;7898;48.658;9.068;2024-03-29T13:12:29;18.30;99.90
15596;DHT22;7898;48.658;9.068;2024-03-29T13:14:56;18.50;99.90
15596;DHT22;7898;48.658;9.068;2024-03-29T13:17:23;18.80;99.90
15596;DHT22;7898;48.658;9.068;2024-03-29T13:19:49;18.90;99.90
15596;DHT22;7898;48.658;9.068;2024-03-29T13:22:16;18.60;99.90
15596;DHT22;7898;48.658;9.068;2024-03-29T13:24:44;18.70;99.90
15596;DHT22;7898;48.658;9.068;2024-03-29T13:27:12;18.70;99.90
15596;DHT22;7898;48.658;9.068;2024-03-29T13:29:39;19.00;99.90
15596;DHT22;7898;48.658;9.068;2024-03-29T13:32:06;19.30;99.90
15596;DHT22;7898;48.658;9.068;2024-03-29T13:34:33;19.60;99.90
15596;DHT22;7898;48.658;9.068;2024-03-29T13:37:00;19.90;99.90
15596;DHT22;7898;48.658;9.068;2024-03-29T13:39:27;19.80;99.90
15596;DHT22;7898;48.658;9.068;2024-03-29T13:41:54;20.10;99.90
15596;DHT22;7898;48.658;9.068;2024-03-29T13:44:22;20.20;99.90
15596;DHT22;7898;48.658;9.068;2024-03-29T13:46:49;20.00;99.90
15596;DHT22;7898;48.658;9.068;2024-03-29T13:49:17;20.10;99.90
15596;DHT22;7898;48.658;9.068;2024-03-29T13:51:46;20.10;99.90
15596;DHT22;7898;48.658;9.068;2024-03-29T13:54:13;20.10;99.90
15596;DHT22;7898;48.658;9.068;2024-03-29T13:56:40;20.10;99.90
15596;DHT22;7898;48.658;9.068;2024-03-29T13:59:07;20.20;99.90
15596;DHT22;7898;48.658;9.068;2024-03-29T14:01:35;20.70;99.90
15596;DHT22;7898;48.658;9.068;2024-03-29T14:04:02;21.20;99.90
15596;DHT22;7898;48.658;9.068;2024-03-29T14:06:29;21.60;99.90
15596;DHT22;7898;48.658;9.068;2024-03-29T14:08:56;22.10;99.90
15596;DHT22;7898;48.658;9.068;2024-03-29T14:11:23;22.50;99.90
15596;DHT22;7898;48.658;9.068;2024-03-29T14:13:50;22.60;99.90
15596;DHT22;7898;48.658;9.068;2024-03-29T14:16:21;22.50;99.90
15596;DHT22;7898;48.658;9.068;2024-03-29T14:18:49;22.60;99.90
15596;DHT22;7898;48.658;9.068;2024-03-29T14:21:16;22.40;99.90
15596;DHT22;7898;48.658;9.068;2024-03-29T14:23:43;22.30;99.90
15596;DHT22;7898;48.658;9.068;2024-03-29T14:26:10;22.10;99.90
15596;DHT22;7898;48.658;9.068;2024-03-29T14:28:37;22.50;99.90
15596;DHT22;7898;48.658;9.068;2024-03-29T14:31:04;22.30;99.90
15596;DHT22;7898;48.658;9.068;2024-03-29T14:33:31;22.80;99.90
15596;DHT22;7898;48.658;9.068;2024-03-29T14:36:00;23.00;99.90
15596;DHT22;7898;48.658;9.068;2024-03-29T14:38:29;22.90;99.90
15596;DHT22;7898;48.658;9.068;2024-03-29T14:40:56;22.70;99.90
15596;DHT22;7898;48.658;9.068;2024-03-29T14:43:23;23.20;99.90
15596;DHT22;7898;48.658;9.068;2024-03-29T14:45:50;23.70;99.90
15596;DHT22;7898;48.658;9.068;2024-03-29T14:48:18;24.10;99.90
15596;DHT22;7898;48.658;9.068;2024-03-29T14:50:45;24.50;99.90
15596;DHT22;7898;48.658;9.068;2024-03-29T14:53:12;24.30;99.90
15596;DHT22;7898;48.658;9.068;2024-03-29T14:55:39;24.30;99.90
15596;DHT22;7898;48.658;9.068;2024-03-29T14:58:06;23.80;99.90
15596;DHT22;7898;48.658;9.068;2024-03-29T15:00:33;23.30;99.90
15596;DHT22;7898;48.658;9.068;2024-03-29T15:03:00;23.00;99.90
15596;DHT22;7898;48.658;9.068;2024-03-29T15:05:27;22.70;99.90
15596;DHT22;7898;48.658;9.068;2024-03-29T15:07:54;22.40;99.90
15596;DHT22;7898;48.658;9.068;2024-03-29T15:10:22;21.60;99.90
15596;DHT22;7898;48.658;9.068;2024-03-29T15:12:49;20.90;99.90
15596;DHT22;7898;48.658;9.068;2024-03-29T15:15:16;20.70;99.90
15596;DHT22;7898;48.658;9.068;2024-03-29T15:17:43;20.20;99.90
15596;DHT22;7898;48.658;9.068;2024-03-29T15:20:11;20.00;99.90
15596;DHT22;7898;48.658;9.068;2024-03-29T15:22:41;19.80;99.90
15596;DHT22;7898;48.658;9.068;2024-03-29T15:25:09;19.60;99.90
15596;DHT22;7898;48.658;9.068;2024-03-29T15:27:38;19.20;99.90
15596;DHT22;7898;48.658;9.068;2024-03-29T15:30:22;18.90;99.90
15596;DHT22;7898;48.658;9.068;2024-03-29T15:32:49;18.80;99.90
15596;DHT22;7898;48.658;9.068;2024-03-29T15:35:16;18.80;99.90
15596;DHT22;7898;48.658;9.068;2024-03-29T15:37:43;18.80;99.90
15596;DHT22;7898;48.658;9.068;2024-03-29T15:40:11;18.80;99.90
15596;DHT22;7898;48.658;9.068;2024-03-29T15:42:40;18.60;99.90
15596;DHT22;7898;48.658;9.068;2024-03-29T15:45:08;18.40;99.90
15596;DHT22;7898;48.658;9.068;2024-03-29T15:47:35;18.20;99.90
15596;DHT22;7898;48.658;9.068;2024-03-29T15:50:03;18.30;99.90
15596;DHT22;7898;48.658;9.068;2024-03-29T15:52:30;18.40;99.90
15596;DHT22;7898;48.658;9.068;2024-03-29T15:54:57;18.50;99.90
15596;DHT22;7898;48.658;9.068;2024-03-29T15:57:24;18.60;99.90